createdAt,value
2022-07-30T00:01:14.604Z,54.90
2022-07-30T00:03:41.369Z,54.93
2022-07-30T00:06:07.983Z,56.00
2022-07-30T00:08:34.740Z,55.99
2022-07-30T00:11:01.294Z,56.08
2022-07-30T00:13:27.959Z,56.10
2022-07-30T00:15:54.486Z,56.14
2022-07-30T00:18:21.823Z,56.51
2022-07-30T00:20:49.034Z,57.13
2022-07-30T00:23:15.615Z,57.03
2022-07-30T00:25:42.259Z,56.93
2022-07-30T00:28:08.797Z,57.21
2022-07-30T00:30:35.597Z,57.00
2022-07-30T00:33:02.267Z,57.30
2022-07-30T00:35:28.904Z,57.72
2022-07-30T00:37:55.530Z,57.48
2022-07-30T00:40:22.187Z,57.24
2022-07-30T00:42:48.827Z,57.62
2022-07-30T00:45:16.776Z,58.12
2022-07-30T00:47:43.804Z,58.08
2022-07-30T00:50:11.974Z,58.10
2022-07-30T00:52:39.668Z,58.12
2022-07-30T00:55:09.508Z,58.15
2022-07-30T00:57:36.525Z,58.46
2022-07-30T01:00:06.013Z,58.27
2022-07-30T01:02:32.597Z,58.50
2022-07-30T01:04:59.184Z,58.67
2022-07-30T01:07:27.420Z,59.17
2022-07-30T01:09:54.040Z,58.98
2022-07-30T01:12:25.058Z,59.24
2022-07-30T01:14:52.842Z,59.64
2022-07-30T01:17:19.379Z,59.34
2022-07-30T01:19:56.036Z,59.23
2022-07-30T01:22:31.489Z,59.09
2022-07-30T01:25:04.140Z,59.24
2022-07-30T01:27:35.371Z,59.23
2022-07-30T01:30:04.201Z,59.08
2022-07-30T01:32:33.343Z,58.99
2022-07-30T01:35:02.828Z,59.22
2022-07-30T01:37:31.698Z,59.23
2022-07-30T01:39:58.960Z,59.46
2022-07-30T01:42:28.809Z,59.75
2022-07-30T01:44:57.296Z,59.72
2022-07-30T01:47:25.335Z,59.67
2022-07-30T01:49:54.882Z,59.33
2022-07-30T01:52:23.538Z,59.29
2022-07-30T01:54:52.390Z,59.34
2022-07-30T01:57:21.123Z,59.44
2022-07-30T01:59:52.082Z,59.94
2022-07-30T02:02:18.866Z,60.15
2022-07-30T02:04:45.527Z,59.86
2022-07-30T02:08:23.192Z,59.95
2022-07-30T02:10:54.036Z,59.98
2022-07-30T02:13:23.435Z,60.24
2022-07-30T02:16:13.871Z,60.18
2022-07-30T02:18:42.952Z,60.40
2022-07-30T02:21:13.081Z,60.78
2022-07-30T02:23:44.191Z,60.79
2022-07-30T02:26:18.498Z,60.88
2022-07-30T02:28:49.695Z,61.15
2022-07-30T02:31:20.915Z,62.00
2022-07-30T02:33:50.434Z,62.73
2022-07-30T02:36:20.184Z,62.39
2022-07-30T02:38:50.742Z,62.10
2022-07-30T02:41:20.497Z,62.42
2022-07-30T02:43:49.900Z,62.53
2022-07-30T02:46:19.112Z,62.90
2022-07-30T02:48:47.867Z,62.78
2022-07-30T02:51:17.549Z,63.11
2022-07-30T02:53:46.760Z,63.25
2022-07-30T02:56:16.041Z,63.31
2022-07-30T02:58:44.758Z,63.55
2022-07-30T03:01:13.530Z,63.91
2022-07-30T03:03:42.831Z,64.03
2022-07-30T03:06:11.725Z,64.30
2022-07-30T03:08:38.390Z,64.07
2022-07-30T03:11:05.739Z,64.78
2022-07-30T03:13:32.395Z,64.75
2022-07-30T03:16:00.322Z,64.72
2022-07-30T03:18:32.822Z,64.82
2022-07-30T03:21:00.714Z,65.11
2022-07-30T03:23:28.091Z,65.11
2022-07-30T03:26:02.118Z,65.24
2022-07-30T03:28:31.338Z,65.47
2022-07-30T03:30:58.700Z,65.44
2022-07-30T03:33:33.605Z,65.71
2022-07-30T03:36:07.047Z,65.98
2022-07-30T03:38:35.879Z,65.83
2022-07-30T03:41:03.196Z,66.02
2022-07-30T03:43:33.209Z,65.83
2022-07-30T03:46:03.385Z,66.07
2022-07-30T03:48:31.261Z,66.21
2022-07-30T03:50:59.210Z,66.07
2022-07-30T03:53:27.668Z,65.73
2022-07-30T03:55:54.944Z,66.10
2022-07-30T03:58:22.046Z,65.90
2022-07-30T04:00:49.901Z,65.94
2022-07-30T04:03:27.792Z,65.64
2022-07-30T04:05:54.435Z,66.17
2022-07-30T04:08:21.397Z,66.03
2022-07-30T04:10:49.432Z,66.17
2022-07-30T04:13:16.405Z,65.94
2022-07-30T04:16:39.261Z,65.98
2022-07-30T04:18:54.760Z,66.25
2022-07-30T04:21:23.843Z,66.04
2022-07-30T04:24:02.363Z,66.24
2022-07-30T04:26:33.855Z,66.49
2022-07-30T04:29:01.469Z,66.49
2022-07-30T04:31:29.186Z,66.41
2022-07-30T04:33:55.880Z,66.36
2022-07-30T04:36:30.495Z,66.41
2022-07-30T04:38:58.136Z,66.33
2022-07-30T04:41:24.857Z,66.30
2022-07-30T04:43:52.426Z,66.26
2022-07-30T04:46:19.122Z,66.63
2022-07-30T04:48:48.228Z,66.63
2022-07-30T04:51:34.858Z,66.53
2022-07-30T04:54:03.053Z,66.80
2022-07-30T04:56:33.824Z,66.46
2022-07-30T04:59:01.476Z,66.29
2022-07-30T05:01:40.530Z,66.58
2022-07-30T05:04:09.298Z,66.30
2022-07-30T05:06:37.822Z,66.59
2022-07-30T05:09:06.320Z,66.57
2022-07-30T05:11:32.939Z,66.53
2022-07-30T05:13:59.515Z,66.63
2022-07-30T05:16:26.434Z,66.56
2022-07-30T05:18:53.058Z,66.80
2022-07-30T05:21:19.591Z,66.70
2022-07-30T05:23:50.010Z,66.79
2022-07-30T05:26:20.578Z,66.54
2022-07-30T05:28:52.115Z,66.50
2022-07-30T05:31:20.644Z,66.05
2022-07-30T05:33:47.958Z,66.61
2022-07-30T05:36:14.606Z,66.64
2022-07-30T05:38:41.125Z,66.21
2022-07-30T05:41:25.178Z,66.11
2022-07-30T05:43:56.139Z,66.09
2022-07-30T05:46:23.297Z,65.57
2022-07-30T05:48:50.267Z,65.33
2022-07-30T05:51:18.743Z,64.54
2022-07-30T05:53:45.454Z,64.55
2022-07-30T05:56:12.048Z,64.69
2022-07-30T05:58:38.677Z,64.41
2022-07-30T06:01:05.358Z,63.95
2022-07-30T06:03:31.922Z,64.17
2022-07-30T06:05:58.445Z,63.99
2022-07-30T06:08:24.991Z,63.79
2022-07-30T06:10:51.580Z,64.16
2022-07-30T06:13:18.230Z,64.27
2022-07-30T06:15:44.797Z,64.04
2022-07-30T06:18:11.380Z,64.19
2022-07-30T06:20:37.895Z,64.38
2022-07-30T06:23:04.436Z,64.35
2022-07-30T06:25:31.246Z,64.31
2022-07-30T06:27:57.781Z,64.36
2022-07-30T06:30:30.236Z,64.10
2022-07-30T06:32:57.900Z,63.88
2022-07-30T06:35:24.482Z,63.73
2022-07-30T06:38:00.638Z,64.31
2022-07-30T06:40:34.581Z,64.43
2022-07-30T06:43:01.203Z,64.34
2022-07-30T06:45:27.799Z,64.07
2022-07-30T06:47:58.715Z,64.49
2022-07-30T06:50:26.032Z,63.84
2022-07-30T06:52:52.695Z,63.22
2022-07-30T06:55:19.479Z,62.24
2022-07-30T06:57:46.112Z,61.66
2022-07-30T07:00:12.963Z,61.60
2022-07-30T07:02:39.602Z,61.42
2022-07-30T07:05:07.477Z,61.69
2022-07-30T07:07:42.493Z,61.57
2022-07-30T07:10:13.245Z,60.15
2022-07-30T07:12:39.936Z,60.72
2022-07-30T07:15:07.016Z,60.51
2022-07-30T07:17:33.539Z,60.59
2022-07-30T07:20:02.657Z,61.02
2022-07-30T07:22:29.554Z,60.34
2022-07-30T07:24:56.346Z,59.96
2022-07-30T07:27:22.902Z,59.39
2022-07-30T07:30:05.004Z,59.39
2022-07-30T07:32:33.324Z,59.07
2022-07-30T07:34:59.861Z,59.09
2022-07-30T07:37:26.515Z,58.90
2022-07-30T07:39:53.095Z,59.28
2022-07-30T07:42:19.695Z,59.06
2022-07-30T07:44:46.264Z,59.40
2022-07-30T07:47:12.881Z,58.93
2022-07-30T07:49:39.431Z,58.41
2022-07-30T07:52:06.754Z,58.00
2022-07-30T07:54:33.547Z,57.32
2022-07-30T07:57:03.152Z,57.24
2022-07-30T07:59:36.178Z,56.30
2022-07-30T08:02:08.033Z,55.33
2022-07-30T08:04:35.341Z,54.06
2022-07-30T08:07:02.349Z,54.61
2022-07-30T08:09:43.902Z,54.55
2022-07-30T08:12:12.776Z,54.49
2022-07-30T08:14:39.708Z,54.81
2022-07-30T08:17:06.782Z,55.70
2022-07-30T08:19:34.048Z,55.41
2022-07-30T08:22:00.718Z,54.83
2022-07-30T08:24:27.232Z,53.56
2022-07-30T08:26:53.935Z,53.92
2022-07-30T08:29:20.453Z,54.14
2022-07-30T08:31:47.124Z,54.83
2022-07-30T08:34:14.083Z,55.58
2022-07-30T08:36:41.427Z,55.32
2022-07-30T08:39:08.830Z,53.84
2022-07-30T08:41:36.800Z,54.76
2022-07-30T08:44:06.935Z,53.50
2022-07-30T08:46:40.868Z,53.01
2022-07-30T08:49:14.800Z,53.75
2022-07-30T08:51:42.200Z,53.46
2022-07-30T08:54:09.386Z,53.54
2022-07-30T08:56:36.082Z,52.72
2022-07-30T08:59:03.538Z,52.44
2022-07-30T09:01:30.239Z,52.08
2022-07-30T09:03:56.851Z,51.84
2022-07-30T09:06:23.507Z,48.81
2022-07-30T09:08:50.086Z,48.05
2022-07-30T09:11:16.728Z,48.38
2022-07-30T09:13:44.581Z,48.57
2022-07-30T09:16:25.642Z,48.96
2022-07-30T09:18:54.055Z,49.63
2022-07-30T09:21:26.527Z,50.60
2022-07-30T09:24:03.291Z,55.54
2022-07-30T09:26:31.182Z,57.27
2022-07-30T09:29:17.000Z,58.57
2022-07-30T09:32:16.204Z,58.49
2022-07-30T09:34:42.719Z,59.68
2022-07-30T09:37:09.202Z,59.66
2022-07-30T09:39:40.884Z,60.11
2022-07-30T09:42:27.754Z,60.15
2022-07-30T09:45:06.643Z,60.87
2022-07-30T09:47:38.623Z,61.17
2022-07-30T09:50:08.155Z,61.99
2022-07-30T09:52:35.247Z,64.38
2022-07-30T09:55:02.107Z,66.83
2022-07-30T09:57:30.478Z,68.41
2022-07-30T09:59:59.901Z,69.90
2022-07-30T10:02:34.034Z,70.96
2022-07-30T10:05:15.419Z,71.50
2022-07-30T10:07:52.486Z,71.58
2022-07-30T10:10:25.588Z,71.73
2022-07-30T10:13:01.342Z,71.95
2022-07-30T10:15:35.073Z,72.78
2022-07-30T10:18:06.087Z,76.05
2022-07-30T10:20:34.927Z,75.44
2022-07-30T10:23:08.094Z,76.79
2022-07-30T10:25:36.407Z,76.61
2022-07-30T10:28:03.950Z,75.35
2022-07-30T10:30:32.387Z,74.42
2022-07-30T10:33:00.304Z,75.38
2022-07-30T10:35:34.830Z,76.96
2022-07-30T10:38:09.526Z,76.38
2022-07-30T10:40:52.306Z,75.98
2022-07-30T10:43:24.751Z,76.92
2022-07-30T10:46:55.553Z,76.92
2022-07-30T10:49:25.674Z,78.02
2022-07-30T10:51:57.436Z,78.39
2022-07-30T10:54:42.279Z,78.28
2022-07-30T10:57:14.978Z,79.46
2022-07-30T10:59:55.460Z,80.77
2022-07-30T11:02:35.848Z,79.83
2022-07-30T11:05:17.860Z,80.29
2022-07-30T11:07:47.350Z,80.10
2022-07-30T11:10:40.250Z,81.00
2022-07-30T11:13:08.476Z,79.92
2022-07-30T11:15:57.512Z,78.55
2022-07-30T11:18:26.685Z,77.28
2022-07-30T11:21:21.327Z,77.93
2022-07-30T11:23:49.471Z,78.20
2022-07-30T11:26:40.996Z,78.03
2022-07-30T11:29:32.865Z,78.60
2022-07-30T11:32:28.079Z,76.10
2022-07-30T11:35:17.503Z,75.89
2022-07-30T11:38:15.531Z,77.45
2022-07-30T11:40:45.632Z,78.34
2022-07-30T11:43:35.142Z,78.91
2022-07-30T11:46:29.602Z,79.89
2022-07-30T11:49:02.763Z,81.67
2022-07-30T11:51:43.546Z,82.87
2022-07-30T11:54:13.191Z,80.34
2022-07-30T11:56:50.748Z,79.60
2022-07-30T11:59:17.372Z,75.80
2022-07-30T12:01:48.868Z,74.93
2022-07-30T12:04:15.521Z,69.52
2022-07-30T12:06:50.884Z,68.72
2022-07-30T12:09:28.691Z,67.48
2022-07-30T12:11:56.527Z,67.22
2022-07-30T12:14:23.203Z,67.09
2022-07-30T12:16:54.075Z,64.65
2022-07-30T12:19:20.911Z,65.82
2022-07-30T12:21:52.753Z,66.08
2022-07-30T12:24:25.897Z,65.49
2022-07-30T12:26:52.471Z,64.21
2022-07-30T12:29:19.223Z,64.77
2022-07-30T12:31:46.573Z,65.86
2022-07-30T12:34:20.914Z,61.95
2022-07-30T12:36:47.606Z,60.48
2022-07-30T12:39:20.653Z,61.32
2022-07-30T12:41:49.735Z,60.43
2022-07-30T12:44:42.355Z,57.54
2022-07-30T12:47:20.106Z,59.16
2022-07-30T12:49:49.637Z,59.96
2022-07-30T12:52:30.961Z,55.61
2022-07-30T12:54:59.990Z,56.54
2022-07-30T12:57:26.575Z,56.60
2022-07-30T13:00:08.188Z,55.59
2022-07-30T13:02:36.213Z,56.54
2022-07-30T13:05:10.541Z,58.19
2022-07-30T13:07:57.967Z,55.76
2022-07-30T13:10:30.420Z,54.39
2022-07-30T13:12:58.255Z,53.54
2022-07-30T13:15:24.786Z,54.11
2022-07-30T13:17:51.460Z,53.79
2022-07-30T13:20:18.684Z,53.13
2022-07-30T13:22:45.519Z,52.76
2022-07-30T13:25:12.893Z,53.55
2022-07-30T13:27:40.175Z,54.82
2022-07-30T13:30:07.677Z,54.52
2022-07-30T13:32:34.261Z,54.76
2022-07-30T13:35:02.349Z,55.42
2022-07-30T13:37:37.781Z,56.11
2022-07-30T13:40:06.785Z,57.15
2022-07-30T13:42:33.502Z,57.36
2022-07-30T13:45:00.245Z,57.88
2022-07-30T13:47:26.804Z,58.11
2022-07-30T13:49:53.408Z,58.64
2022-07-30T13:52:19.973Z,58.87
2022-07-30T13:54:46.669Z,59.11
2022-07-30T13:57:13.184Z,60.38
2022-07-30T13:59:39.801Z,61.36
2022-07-30T14:02:06.398Z,60.05
2022-07-30T14:04:32.997Z,58.87
2022-07-30T14:06:59.848Z,59.92
2022-07-30T14:09:26.906Z,59.87
2022-07-30T14:11:53.899Z,59.89
2022-07-30T14:14:22.420Z,59.67
2022-07-30T14:16:51.770Z,60.61
2022-07-30T14:19:22.728Z,60.24
2022-07-30T14:21:50.379Z,59.56
2022-07-30T14:24:16.946Z,60.03
2022-07-30T14:26:44.011Z,61.00
2022-07-30T14:29:10.981Z,61.46
2022-07-30T14:31:37.918Z,61.12
2022-07-30T14:34:04.799Z,59.24
2022-07-30T14:36:31.339Z,59.69
2022-07-30T14:38:58.140Z,59.48
2022-07-30T14:41:25.591Z,58.38
2022-07-30T14:43:52.873Z,57.85
2022-07-30T14:46:19.985Z,56.67
2022-07-30T14:48:46.543Z,56.13
2022-07-30T14:51:19.453Z,55.14
2022-07-30T14:53:50.464Z,54.51
2022-07-30T14:56:17.696Z,54.62
2022-07-30T14:58:44.487Z,55.18
2022-07-30T15:01:16.116Z,55.63
2022-07-30T15:03:44.126Z,56.15
2022-07-30T15:06:12.679Z,56.87
2022-07-30T15:08:39.276Z,59.98
2022-07-30T15:11:07.850Z,55.09
2022-07-30T15:13:41.110Z,51.84
2022-07-30T15:16:17.361Z,54.53
2022-07-30T15:18:43.926Z,51.54
2022-07-30T15:21:12.450Z,48.58
2022-07-30T15:23:38.998Z,46.99
2022-07-30T15:26:05.577Z,44.52
2022-07-30T15:28:32.137Z,44.70
2022-07-30T15:30:59.008Z,45.24
2022-07-30T15:33:25.865Z,44.76
2022-07-30T15:35:52.897Z,45.27
2022-07-30T15:38:19.516Z,45.21
2022-07-30T15:40:46.191Z,44.44
2022-07-30T15:43:12.700Z,46.38
2022-07-30T15:45:55.869Z,46.16
2022-07-30T15:48:27.419Z,48.46
2022-07-30T15:51:02.659Z,49.16
2022-07-30T15:53:31.215Z,48.43
2022-07-30T15:55:58.698Z,48.69
2022-07-30T15:58:25.366Z,48.62
2022-07-30T16:00:51.963Z,48.77
2022-07-30T16:03:18.615Z,49.16
2022-07-30T16:05:51.595Z,50.24
2022-07-30T16:08:19.625Z,49.90
2022-07-30T16:10:46.178Z,49.41
2022-07-30T16:13:12.768Z,50.82
2022-07-30T16:15:39.335Z,52.44
2022-07-30T16:18:06.385Z,55.36
2022-07-30T16:20:33.194Z,52.50
2022-07-30T16:22:59.924Z,52.89
2022-07-30T16:25:26.872Z,52.36
2022-07-30T16:27:53.502Z,49.24
2022-07-30T16:30:20.399Z,48.99
2022-07-30T16:32:46.955Z,49.52
2022-07-30T16:35:13.676Z,46.55
2022-07-30T16:37:41.462Z,46.93
2022-07-30T16:40:08.552Z,44.79
2022-07-30T16:42:35.143Z,42.17
2022-07-30T16:45:01.710Z,42.59
2022-07-30T16:47:28.256Z,43.42
2022-07-30T16:50:00.953Z,43.68
2022-07-30T16:52:27.578Z,42.15
2022-07-30T16:54:54.251Z,42.42
2022-07-30T16:57:20.848Z,43.34
2022-07-30T16:59:47.347Z,43.12
2022-07-30T17:02:13.951Z,43.76
2022-07-30T17:04:41.550Z,44.17
2022-07-30T17:07:08.238Z,44.44
2022-07-30T17:09:36.634Z,44.84
2022-07-30T17:12:06.169Z,46.13
2022-07-30T17:14:38.889Z,46.81
2022-07-30T17:17:05.430Z,46.75
2022-07-30T17:19:32.021Z,47.14
2022-07-30T17:21:58.555Z,48.65
2022-07-30T17:24:25.433Z,49.46
2022-07-30T17:26:52.594Z,50.15
2022-07-30T17:29:19.114Z,50.59
2022-07-30T17:31:46.134Z,50.76
2022-07-30T17:34:15.271Z,51.15
2022-07-30T17:36:52.044Z,51.41
2022-07-30T17:40:18.771Z,52.13
2022-07-30T17:42:07.636Z,52.38
2022-07-30T17:44:35.558Z,52.84
2022-07-30T17:47:02.135Z,53.14
2022-07-30T17:49:29.991Z,53.12
2022-07-30T17:51:56.855Z,53.89
2022-07-30T17:54:23.589Z,54.70
2022-07-30T17:56:50.183Z,54.57
2022-07-30T17:59:16.753Z,54.49
2022-07-30T18:01:45.682Z,54.92
2022-07-30T18:04:12.459Z,55.11
2022-07-30T18:06:39.035Z,55.43
2022-07-30T18:09:06.360Z,56.39
2022-07-30T18:11:33.300Z,56.13
2022-07-30T18:13:59.939Z,57.04
2022-07-30T18:16:26.484Z,57.63
2022-07-30T18:18:53.024Z,57.00
2022-07-30T18:21:19.608Z,57.63
2022-07-30T18:23:46.192Z,58.15
2022-07-30T18:26:12.805Z,58.24
2022-07-30T18:28:39.396Z,59.10
2022-07-30T18:31:06.317Z,59.48
2022-07-30T18:33:32.919Z,59.90
2022-07-30T18:35:59.519Z,60.02
2022-07-30T18:38:26.161Z,59.71
2022-07-30T18:40:58.548Z,60.80
2022-07-30T18:43:29.305Z,61.12
2022-07-30T18:45:57.156Z,60.62
2022-07-30T18:48:24.629Z,61.00
2022-07-30T18:50:52.870Z,61.25
2022-07-30T18:53:19.824Z,61.37
2022-07-30T18:55:46.697Z,62.13
2022-07-30T18:58:13.269Z,61.58
2022-07-30T19:00:42.844Z,61.61
2022-07-30T19:03:16.436Z,62.56
2022-07-30T19:05:45.625Z,62.55
2022-07-30T19:08:12.145Z,63.10
2022-07-30T19:10:39.973Z,63.08
2022-07-30T19:13:06.603Z,63.16
2022-07-30T19:15:33.221Z,64.13
2022-07-30T19:17:59.816Z,63.67
2022-07-30T19:20:26.762Z,63.87
2022-07-30T19:23:01.655Z,63.95
2022-07-30T19:25:29.812Z,64.10
2022-07-30T19:27:56.427Z,64.52
2022-07-30T19:30:22.934Z,64.53
2022-07-30T19:32:49.649Z,64.51
2022-07-30T19:35:16.258Z,64.77
2022-07-30T19:37:42.879Z,65.37
2022-07-30T19:40:10.007Z,64.65
2022-07-30T19:42:41.469Z,65.21
2022-07-30T19:45:11.446Z,65.45
2022-07-30T19:47:39.876Z,65.79
2022-07-30T19:50:10.231Z,65.93
2022-07-30T19:52:37.990Z,65.90
2022-07-30T19:57:54.312Z,66.57
2022-07-30T20:00:24.690Z,66.53
2022-07-30T20:02:52.960Z,66.81
2022-07-30T20:05:19.796Z,66.89
2022-07-30T20:07:47.138Z,68.00
2022-07-30T20:10:16.361Z,68.06
2022-07-30T20:12:49.058Z,68.29
2022-07-30T20:15:16.768Z,68.65
2022-07-30T20:17:43.320Z,69.32
2022-07-30T20:20:13.641Z,69.15
2022-07-30T20:22:40.603Z,68.82
2022-07-30T20:25:08.436Z,68.85
2022-07-30T20:27:37.155Z,69.86
2022-07-30T20:30:05.788Z,69.63
2022-07-30T20:32:32.351Z,69.42
2022-07-30T20:34:58.966Z,70.27
2022-07-30T20:37:27.485Z,70.70
2022-07-30T20:39:55.016Z,70.97
2022-07-30T20:42:23.668Z,71.30
2022-07-30T20:44:53.268Z,71.83
2022-07-30T20:47:34.254Z,71.75
2022-07-30T20:50:09.588Z,72.05
2022-07-30T20:52:37.483Z,72.61
2022-07-30T20:55:08.577Z,72.36
2022-07-30T20:57:57.122Z,72.70
2022-07-30T21:00:23.092Z,73.74
2022-07-30T21:02:51.386Z,73.47
2022-07-30T21:05:19.949Z,73.82
2022-07-30T21:07:47.054Z,74.04
2022-07-30T21:10:14.635Z,74.37
2022-07-30T21:12:44.834Z,74.45
2022-07-30T21:15:24.021Z,74.98
2022-07-30T21:17:51.248Z,75.46
2022-07-30T21:20:27.819Z,75.88
2022-07-30T21:22:55.835Z,76.37
2022-07-30T21:25:23.521Z,75.79
2022-07-30T21:28:00.480Z,75.80
2022-07-30T21:30:30.321Z,76.01
2022-07-30T21:32:56.854Z,75.98
2022-07-30T21:35:23.616Z,76.17
2022-07-30T21:37:51.953Z,76.89
2022-07-30T21:40:19.122Z,76.52
2022-07-30T21:42:51.394Z,76.54
2022-07-30T21:45:18.027Z,76.57
2022-07-30T21:47:47.588Z,77.04
2022-07-30T21:50:15.934Z,77.63
2022-07-30T21:52:43.551Z,78.28
2022-07-30T21:55:13.387Z,78.48
2022-07-30T21:57:40.701Z,77.96
2022-07-30T22:00:15.066Z,78.70
2022-07-30T22:02:53.026Z,79.37
2022-07-30T22:05:21.741Z,80.10
2022-07-30T22:07:49.997Z,79.48
2022-07-30T22:10:21.524Z,79.61
2022-07-30T22:12:48.618Z,80.42
2022-07-30T22:15:15.347Z,80.06
2022-07-30T22:17:57.799Z,80.36
2022-07-30T22:20:26.915Z,80.33
2022-07-30T22:22:57.523Z,80.58
2022-07-30T22:25:24.418Z,80.48
2022-07-30T22:28:10.437Z,80.65
2022-07-30T22:30:38.534Z,80.96
2022-07-30T22:33:14.195Z,80.78
2022-07-30T22:35:46.583Z,80.69
2022-07-30T22:38:13.680Z,80.89
2022-07-30T22:40:40.432Z,80.85
2022-07-30T22:43:12.465Z,80.61
2022-07-30T22:45:49.133Z,81.35
2022-07-30T22:48:17.200Z,81.59
2022-07-30T22:50:43.715Z,82.38
2022-07-30T22:54:02.569Z,81.91
2022-07-30T22:55:58.642Z,82.44
2022-07-30T22:58:26.405Z,82.46
2022-07-30T23:00:53.484Z,82.50
2022-07-30T23:03:20.173Z,82.87
2022-07-30T23:05:55.010Z,82.32
2022-07-30T23:08:29.615Z,82.20
2022-07-30T23:10:57.080Z,82.79
2022-07-30T23:12:16.862Z,66.34
2022-07-30T23:13:23.633Z,83.38
2022-07-30T23:15:50.196Z,82.61
2022-07-30T23:18:16.750Z,82.83
2022-07-30T23:20:43.318Z,82.58
2022-07-30T23:23:11.624Z,83.05
2022-07-30T23:25:39.281Z,83.42
2022-07-30T23:28:06.390Z,82.82
2022-07-30T23:30:34.221Z,83.29
2022-07-30T23:33:01.124Z,82.97
2022-07-30T23:35:27.690Z,83.24
2022-07-30T23:37:54.226Z,82.72
2022-07-30T23:40:20.751Z,82.98
2022-07-30T23:42:47.793Z,82.63
2022-07-30T23:45:14.528Z,82.33
2022-07-30T23:48:00.799Z,82.50
2022-07-30T23:50:27.649Z,82.05
2022-07-30T23:52:54.162Z,82.04
2022-07-30T23:55:21.051Z,82.04
2022-07-30T23:57:47.595Z,81.70
